Time;durP1;ratioP1;P1;durP2;ratioP2;P2;SDS_P1;SDS_P2;PMS_P1;PMS_P2;Temp;Humidity;BMP_temperature;BMP_pressure;BME280_temperature;BME280_humidity;BME280_pressure;Samples;Min_cycle;Max_cycle;Signal;HPM_P1;HPM_P2
2023/12/31 00:00:10;;;;;;;9.57;6.43;;;1.70;99.90;;;;;;5068788;28;20130;-67
2023/12/31 00:02:37;;;;;;;10.02;6.60;;;1.60;99.90;;;;;;5077278;28;20041;-67
2023/12/31 00:05:09;;;;;;;9.55;6.85;;;1.60;99.90;;;;;;5080178;28;20064;-67
2023/12/31 00:07:41;;;;;;;8.93;6.53;;;1.60;99.90;;;;;;5074161;28;20098;-67
2023/12/31 00:10:13;;;;;;;10.35;6.55;;;1.60;99.90;;;;;;5077733;28;20044;-67
2023/12/31 00:12:45;;;;;;;6.68;5.75;;;1.60;99.90;;;;;;5075231;28;20053;-67
2023/12/31 00:15:17;;;;;;;7.50;5.95;;;1.60;99.90;;;;;;5084572;28;20075;-67
2023/12/31 00:17:49;;;;;;;8.90;6.45;;;1.60;99.90;;;;;;5087442;28;20139;-67
2023/12/31 00:20:20;;;;;;;7.05;5.57;;;1.60;99.90;;;;;;5093661;28;20039;-67
2023/12/31 00:22:52;;;;;;;6.63;4.82;;;1.50;99.90;;;;;;5081900;28;20051;-67
2023/12/31 00:25:24;;;;;;;8.45;5.47;;;1.50;99.90;;;;;;5062390;28;20074;-67
2023/12/31 00:27:56;;;;;;;10.48;5.15;;;1.50;99.90;;;;;;5076255;28;20041;-67
2023/12/31 00:30:29;;;;;;;8.23;5.47;;;1.50;99.90;;;;;;5080071;28;20040;-67
2023/12/31 00:33:01;;;;;;;8.80;5.80;;;1.50;99.90;;;;;;5078164;28;20049;-69
2023/12/31 00:35:33;;;;;;;9.15;6.43;;;1.50;99.90;;;;;;5079985;28;20032;-67
2023/12/31 00:38:00;;;;;;;11.15;6.60;;;1.40;99.90;;;;;;5085656;28;20097;-67
2023/12/31 00:40:32;;;;;;;10.73;7.03;;;1.50;99.90;;;;;;5071464;28;20052;-67
2023/12/31 00:43:04;;;;;;;11.52;7.47;;;1.50;99.90;;;;;;5054408;28;20045;-67
2023/12/31 00:45:36;;;;;;;7.32;6.25;;;1.50;99.90;;;;;;5073443;28;20524;-67
2023/12/31 00:48:10;;;;;;;11.15;6.78;;;1.50;99.90;;;;;;5073075;28;20432;-67
2023/12/31 00:50:42;;;;;;;11.07;6.72;;;1.40;99.90;;;;;;5073468;28;20431;-68
2023/12/31 00:53:09;;;;;;;9.00;5.75;;;1.40;99.90;;;;;;5087430;28;20067;-68
2023/12/31 00:55:38;;;;;;;8.85;5.22;;;1.40;99.90;;;;;;5087129;28;20079;-68
2023/12/31 00:58:10;;;;;;;;;;;1.40;99.90;;;;;;5066751;28;20051;-68
2023/12/31 01:00:43;;;;;;;10.67;5.87;;;1.30;99.90;;;;;;5080728;28;19919;-69
2023/12/31 01:03:15;;;;;;;8.85;5.43;;;1.30;99.90;;;;;;5073447;28;20041;-68
2023/12/31 01:05:42;;;;;;;10.00;6.00;;;1.30;99.90;;;;;;5060623;28;20067;-68
2023/12/31 01:08:14;;;;;;;7.65;5.63;;;1.20;99.90;;;;;;5062154;28;20454;-67
2023/12/31 01:10:46;;;;;;;7.22;5.00;;;1.20;99.90;;;;;;5068725;28;20041;-68
2023/12/31 01:13:13;;;;;;;8.20;6.25;;;1.20;99.90;;;;;;5072858;28;20041;-68
2023/12/31 01:15:40;;;;;;;7.78;5.40;;;1.20;99.90;;;;;;5087398;28;20046;-68
2023/12/31 01:18:12;;;;;;;9.73;6.38;;;1.10;99.90;;;;;;5088075;28;20048;-68
2023/12/31 01:20:39;;;;;;;10.68;6.65;;;1.10;99.90;;;;;;5086636;28;20139;-68
2023/12/31 01:23:12;;;;;;;13.98;8.68;;;1.10;99.90;;;;;;5083959;28;20117;-68
2023/12/31 01:25:44;;;;;;;14.63;9.43;;;1.10;99.90;;;;;;5079517;28;20036;-68
2023/12/31 01:28:16;;;;;;;24.88;14.65;;;1.10;99.90;;;;;;5078104;28;20094;-68
2023/12/31 01:30:48;;;;;;;21.02;12.50;;;1.10;99.90;;;;;;5061970;28;20040;-68
2023/12/31 01:33:20;;;;;;;20.23;11.70;;;1.10;99.90;;;;;;5102948;28;20564;-68
2023/12/31 01:35:52;;;;;;;13.63;8.43;;;1.10;99.90;;;;;;5088627;28;20044;-68
2023/12/31 01:38:24;;;;;;;11.35;7.15;;;1.00;99.90;;;;;;5090166;28;20044;-68
2023/12/31 01:40:55;;;;;;;11.68;8.18;;;1.00;99.90;;;;;;5090406;28;20135;-67
2023/12/31 01:43:26;;;;;;;15.48;8.57;;;1.00;99.90;;;;;;5088696;28;20046;-68
2023/12/31 01:45:53;;;;;;;11.25;6.82;;;0.90;99.90;;;;;;5067985;28;20052;-68
2023/12/31 01:48:26;;;;;;;11.70;7.82;;;0.90;99.90;;;;;;5078664;28;20040;-68
2023/12/31 01:50:57;;;;;;;10.93;6.93;;;0.90;99.90;;;;;;5081059;28;20044;-67
2023/12/31 01:53:25;;;;;;;11.65;7.13;;;0.90;99.90;;;;;;5063533;28;20126;-67
2023/12/31 01:55:53;;;;;;;11.40;7.75;;;0.90;99.90;;;;;;5065012;28;20470;-68
2023/12/31 01:58:25;;;;;;;10.70;7.38;;;0.80;99.90;;;;;;5057777;28;20472;-68
2023/12/31 02:00:58;;;;;;;9.50;6.47;;;0.80;99.90;;;;;;5074372;28;20491;-68
2023/12/31 02:03:30;;;;;;;9.63;6.90;;;0.70;99.90;;;;;;5049514;28;20041;-68
2023/12/31 02:06:03;;;;;;;9.80;6.50;;;0.70;99.90;;;;;;5070735;28;20115;-67
2023/12/31 02:08:30;;;;;;;7.97;6.65;;;0.70;99.90;;;;;;5071885;28;20035;-67
2023/12/31 02:11:02;;;;;;;10.73;7.35;;;0.70;99.90;;;;;;5057914;28;20040;-67
2023/12/31 02:13:29;;;;;;;8.05;5.75;;;0.70;99.90;;;;;;5075361;28;20064;-68
2023/12/31 02:16:01;;;;;;;9.60;6.03;;;0.70;99.90;;;;;;5061739;28;20040;-67
2023/12/31 02:18:29;;;;;;;9.00;6.43;;;0.70;99.90;;;;;;5080445;28;20090;-67
2023/12/31 02:21:00;;;;;;;8.68;6.40;;;0.80;99.90;;;;;;5059753;28;20045;-67
2023/12/31 02:23:32;;;;;;;12.95;8.02;;;0.80;99.90;;;;;;5060519;28;20505;-68
2023/12/31 02:26:11;;;;;;;11.40;7.45;;;0.80;99.90;;;;;;5071670;28;20043;-67
2023/12/31 02:28:43;;;;;;;8.77;6.13;;;0.70;99.90;;;;;;5081422;28;20044;-68
2023/12/31 02:31:15;;;;;;;6.68;4.97;;;0.70;99.90;;;;;;5054276;28;20055;-67
2023/12/31 02:33:47;;;;;;;7.13;5.05;;;0.70;99.90;;;;;;5088816;28;20040;-67
2023/12/31 02:36:14;;;;;;;8.57;5.22;;;0.70;99.90;;;;;;5051568;28;20500;-67
2023/12/31 02:38:45;;;;;;;5.97;4.50;;;0.70;99.90;;;;;;5058654;28;20048;-67
2023/12/31 02:41:12;;;;;;;9.70;4.47;;;0.70;99.90;;;;;;5058918;28;20111;-67
2023/12/31 02:43:45;;;;;;;8.93;5.05;;;0.70;99.90;;;;;;5078329;28;20119;-68
2023/12/31 02:46:17;;;;;;;8.88;5.25;;;0.70;99.90;;;;;;5079666;28;20040;-68
2023/12/31 02:48:49;;;;;;;7.50;5.40;;;0.80;99.90;;;;;;5074729;28;20040;-67
2023/12/31 02:51:22;;;;;;;10.65;6.05;;;0.80;99.90;;;;;;5066869;28;20067;-68
2023/12/31 02:53:54;;;;;;;7.72;5.38;;;0.80;99.90;;;;;;5086184;28;20048;-67
2023/12/31 02:56:26;;;;;;;7.15;4.43;;;0.80;99.90;;;;;;5087604;28;20048;-67
2023/12/31 02:58:59;;;;;;;3.70;2.90;;;0.70;99.90;;;;;;5068556;28;20122;-67
2023/12/31 03:01:26;;;;;;;6.25;4.35;;;0.70;99.90;;;;;;5071347;28;20075;-67
2023/12/31 03:03:58;;;;;;;7.72;5.38;;;0.70;99.90;;;;;;5068371;28;20511;-67
2023/12/31 03:06:30;;;;;;;7.50;4.55;;;0.70;99.90;;;;;;5067536;28;20553;-67
2023/12/31 03:09:01;;;;;;;10.27;6.68;;;0.70;99.90;;;;;;5082396;28;20045;-67
2023/12/31 03:11:34;;;;;;;9.32;6.40;;;0.70;99.90;;;;;;5076951;28;20082;-67
2023/12/31 03:14:00;;;;;;;9.70;6.05;;;0.60;99.90;;;;;;5080236;28;20632;-67
2023/12/31 03:16:32;;;;;;;7.15;4.80;;;0.60;99.90;;;;;;5082750;28;20049;-67
2023/12/31 03:19:04;;;;;;;8.45;5.25;;;0.50;99.90;;;;;;5052519;28;20424;-67
2023/12/31 03:21:36;;;;;;;7.97;5.88;;;0.50;99.90;;;;;;5049031;28;20140;-67
2023/12/31 03:24:08;;;;;;;9.48;6.15;;;0.40;99.90;;;;;;5069936;28;20029;-67
2023/12/31 03:26:36;;;;;;;8.73;5.45;;;0.40;99.90;;;;;;5087351;28;20051;-68
2023/12/31 03:29:07;;;;;;;8.75;5.78;;;0.40;99.90;;;;;;5086236;28;20041;-67
2023/12/31 03:31:40;;;;;;;7.85;5.00;;;0.40;99.90;;;;;;5083429;28;20131;-67
2023/12/31 03:34:12;;;;;;;9.60;5.13;;;0.40;99.90;;;;;;5078031;28;20040;-68
2023/12/31 03:36:44;;;;;;;13.38;5.88;;;0.40;99.90;;;;;;5063706;28;20060;-67
2023/12/31 03:39:16;;;;;;;6.63;5.00;;;0.30;99.90;;;;;;5078082;28;20060;-68
2023/12/31 03:41:51;;;;;;;8.20;5.22;;;0.30;99.90;;;;;;5076112;28;20047;-68
2023/12/31 03:44:23;;;;;;;9.43;4.70;;;0.30;99.90;;;;;;5074129;28;20051;-68
2023/12/31 03:46:55;;;;;;;7.95;5.03;;;0.30;99.90;;;;;;5085534;28;20040;-68
2023/12/31 03:49:26;;;;;;;7.68;4.70;;;0.30;99.90;;;;;;5087851;28;20052;-68
2023/12/31 03:51:58;;;;;;;9.80;4.10;;;0.30;99.90;;;;;;5070536;28;20049;-68
2023/12/31 03:54:30;;;;;;;6.68;4.40;;;0.30;99.90;;;;;;5088633;28;20530;-67
2023/12/31 03:57:02;;;;;;;6.57;3.72;;;0.20;99.90;;;;;;5088035;28;20048;-68
2023/12/31 03:59:34;;;;;;;4.78;3.20;;;0.20;99.90;;;;;;5083009;28;20044;-68
2023/12/31 04:02:01;;;;;;;4.05;2.95;;;0.20;99.90;;;;;;5084683;28;20068;-68
2023/12/31 04:04:29;;;;;;;5.60;4.00;;;0.20;99.90;;;;;;5080549;28;20043;-68
2023/12/31 04:07:02;;;;;;;4.30;3.00;;;0.20;99.90;;;;;;5064731;28;20062;-68
2023/12/31 04:09:29;;;;;;;4.25;2.85;;;0.20;99.90;;;;;;5078863;28;20709;-68
2023/12/31 04:12:04;;;;;;;4.05;2.97;;;0.20;99.90;;;;;;5088868;28;20063;-68
2023/12/31 04:14:36;;;;;;;5.10;2.75;;;0.20;99.90;;;;;;5056787;28;20049;-68
2023/12/31 04:17:09;;;;;;;4.45;2.53;;;0.10;99.90;;;;;;5073238;28;20044;-68
2023/12/31 04:19:41;;;;;;;5.20;2.60;;;0.10;99.90;;;;;;5058814;28;20044;-68
2023/12/31 04:22:13;;;;;;;3.97;2.72;;;0.10;99.90;;;;;;5076197;28;20045;-68
2023/12/31 04:24:44;;;;;;;6.45;2.88;;;0.10;99.90;;;;;;5078513;28;20060;-68
2023/12/31 04:27:19;;;;;;;4.00;2.50;;;0.10;99.90;;;;;;5061052;28;20497;-68
2023/12/31 04:29:51;;;;;;;4.20;2.55;;;0.10;99.90;;;;;;5067254;28;20044;-68
2023/12/31 04:32:26;;;;;;;3.95;2.85;;;0.10;99.90;;;;;;5066039;28;20594;-67
2023/12/31 04:34:53;;;;;;;3.92;2.38;;;0.10;99.90;;;;;;5086760;28;20101;-68
2023/12/31 04:37:25;;;;;;;3.47;2.55;;;0.10;99.90;;;;;;5089162;28;20424;-68
2023/12/31 04:39:57;;;;;;;5.70;3.85;;;0.10;99.90;;;;;;5089198;28;20423;-68
2023/12/31 04:42:24;;;;;;;5.40;3.78;;;0.10;99.90;;;;;;5091686;28;20031;-68
2023/12/31 04:44:59;;;;;;;4.45;3.40;;;0.10;99.90;;;;;;5075859;28;20039;-68
2023/12/31 04:47:31;;;;;;;5.97;3.75;;;0.10;99.90;;;;;;5073514;28;20058;-68
2023/12/31 04:50:04;;;;;;;4.15;3.30;;;0.10;99.90;;;;;;5089484;28;20033;-68
2023/12/31 04:52:36;;;;;;;6.60;3.97;;;0.10;99.90;;;;;;5056963;28;20049;-68
2023/12/31 04:55:08;;;;;;;7.65;4.85;;;0.00;99.90;;;;;;5084000;28;20416;-68
2023/12/31 04:57:40;;;;;;;8.20;5.38;;;0.00;99.90;;;;;;5055425;28;20407;-68
2023/12/31 05:00:07;;;;;;;12.82;6.80;;;0.00;99.90;;;;;;5062965;28;20423;-68
2023/12/31 05:02:39;;;;;;;13.00;9.20;;;0.00;99.90;;;;;;5077526;28;20044;-68
2023/12/31 05:05:12;;;;;;;14.02;8.80;;;0.00;99.90;;;;;;5076597;28;20039;-68
2023/12/31 05:07:40;;;;;;;9.68;6.85;;;-0.10;99.90;;;;;;5074651;28;20037;-68
2023/12/31 05:10:12;;;;;;;9.40;7.30;;;-0.10;99.90;;;;;;5051156;28;20049;-67
2023/12/31 05:12:44;;;;;;;8.52;5.78;;;-0.10;99.90;;;;;;5073694;28;20263;-68
2023/12/31 05:15:11;;;;;;;9.82;6.30;;;-0.20;99.90;;;;;;5078871;28;20051;-68
2023/12/31 05:17:38;;;;;;;9.20;5.65;;;-0.20;99.90;;;;;;5077250;28;20045;-68
2023/12/31 05:20:10;;;;;;;6.55;5.35;;;-0.20;99.90;;;;;;5080541;28;20438;-68
2023/12/31 05:22:41;;;;;;;8.68;5.03;;;-0.20;99.90;;;;;;5082728;28;20060;-68
2023/12/31 05:25:09;;;;;;;6.60;5.00;;;-0.20;99.90;;;;;;5083997;28;20559;-68
2023/12/31 05:27:35;;;;;;;6.82;4.65;;;-0.20;99.90;;;;;;5067734;28;20072;-68
2023/12/31 05:30:08;;;;;;;7.72;4.80;;;-0.30;99.90;;;;;;5088367;28;20428;-68
2023/12/31 05:32:40;;;;;;;7.70;5.40;;;-0.20;99.90;;;;;;5089568;28;20389;-68
2023/12/31 05:35:07;;;;;;;5.95;4.20;;;-0.30;99.90;;;;;;5072363;28;20489;-68
2023/12/31 05:37:39;;;;;;;11.10;4.90;;;-0.30;99.90;;;;;;5071830;28;20051;-68
2023/12/31 05:40:11;;;;;;;6.10;4.20;;;-0.30;99.90;;;;;;5075524;28;20046;-68
2023/12/31 05:42:43;;;;;;;7.45;4.88;;;-0.30;99.90;;;;;;5077153;28;20492;-68
2023/12/31 05:45:18;;;;;;;5.82;4.13;;;-0.40;99.90;;;;;;5083489;28;20389;-68
2023/12/31 05:47:47;;;;;;;6.55;4.30;;;-0.40;99.90;;;;;;5078832;28;20058;-68
2023/12/31 05:50:20;;;;;;;7.35;4.07;;;-0.40;99.90;;;;;;5095452;28;20083;-68
2023/12/31 05:52:47;;;;;;;8.07;4.15;;;-0.40;99.90;;;;;;5061988;28;20403;-67
2023/12/31 05:55:18;;;;;;;5.65;3.85;;;-0.40;99.90;;;;;;5086183;28;20054;-68
2023/12/31 05:57:45;;;;;;;5.05;3.45;;;-0.40;99.90;;;;;;5087278;28;20507;-68
2023/12/31 06:00:17;;;;;;;6.97;4.35;;;-0.40;99.90;;;;;;5073340;28;20044;-68
2023/12/31 06:02:50;;;;;;;9.00;4.40;;;-0.40;99.90;;;;;;5091810;28;20055;-68
2023/12/31 06:05:20;;;;;;;6.15;4.05;;;-0.30;99.90;;;;;;5089038;28;20045;-68
2023/12/31 06:07:52;;;;;;;6.40;4.13;;;-0.30;99.90;;;;;;5085847;28;20059;-67
2023/12/31 06:10:24;;;;;;;6.05;4.28;;;-0.30;99.90;;;;;;5085472;28;20090;-67
2023/12/31 06:12:51;;;;;;;9.43;5.38;;;-0.30;99.90;;;;;;5083208;28;20630;-67
2023/12/31 06:15:23;;;;;;;8.05;5.50;;;-0.30;99.90;;;;;;5079953;28;20563;-67
2023/12/31 06:17:49;;;;;;;7.00;4.68;;;-0.30;99.90;;;;;;5079289;28;20147;-67
2023/12/31 06:20:21;;;;;;;8.25;4.80;;;-0.30;99.90;;;;;;5052120;28;20056;-67
2023/12/31 06:22:53;;;;;;;7.97;5.55;;;-0.30;99.90;;;;;;5076205;28;20040;-67
2023/12/31 06:25:20;;;;;;;6.90;5.20;;;-0.30;99.90;;;;;;5088240;28;20040;-67
2023/12/31 06:27:52;;;;;;;5.82;4.20;;;-0.30;99.90;;;;;;5089219;28;20048;-67
2023/12/31 06:30:24;;;;;;;9.48;6.97;;;-0.30;99.90;;;;;;5073522;28;20063;-67
2023/12/31 06:32:51;;;;;;;13.70;8.50;;;-0.10;99.90;;;;;;5056451;28;20090;-67
2023/12/31 06:35:23;;;;;;;12.68;8.45;;;-0.10;99.90;;;;;;5086193;28;20060;-67
2023/12/31 06:37:54;;;;;;;11.95;7.47;;;-0.20;99.90;;;;;;5083620;28;20572;-67
2023/12/31 06:40:21;;;;;;;12.85;6.95;;;-0.60;99.90;;;;;;5083169;28;20043;-67
2023/12/31 06:42:48;;;;;;;13.07;8.73;;;-0.70;99.90;;;;;;5063360;28;20048;-67
2023/12/31 06:45:20;;;;;;;14.00;10.35;;;-0.80;99.90;;;;;;5077197;28;20040;-67
2023/12/31 06:47:52;;;;;;;12.25;8.05;;;-0.80;99.90;;;;;;5077268;28;20087;-67
2023/12/31 06:50:24;;;;;;;11.25;7.68;;;-0.80;99.90;;;;;;5072497;28;20132;-67
2023/12/31 06:52:51;;;;;;;10.38;7.57;;;-0.80;99.90;;;;;;5071750;28;20045;-67
2023/12/31 06:55:22;;;;;;;12.27;7.15;;;-0.70;99.90;;;;;;5069149;28;20037;-68
2023/12/31 06:57:54;;;;;;;11.32;7.45;;;-0.70;99.90;;;;;;5068102;28;20029;-68
2023/12/31 07:00:26;;;;;;;12.30;7.93;;;-0.70;99.90;;;;;;5068774;28;20044;-68
2023/12/31 07:02:53;;;;;;;11.32;7.45;;;-0.70;99.90;;;;;;5065915;28;20044;-68
2023/12/31 07:05:20;;;;;;;10.88;7.13;;;-0.70;99.90;;;;;;5076350;28;20055;-68
2023/12/31 07:07:52;;;;;;;9.18;7.00;;;-0.70;99.90;;;;;;5077107;28;20045;-68
2023/12/31 07:10:24;;;;;;;10.15;7.13;;;-0.70;99.90;;;;;;5078838;28;20127;-67
2023/12/31 07:12:56;;;;;;;13.43;7.88;;;-0.70;99.90;;;;;;5063309;28;20040;-68
2023/12/31 07:15:28;;;;;;;12.45;7.40;;;-0.70;99.90;;;;;;5067170;28;20076;-67
2023/12/31 07:18:00;;;;;;;11.18;7.40;;;-0.60;99.90;;;;;;5080201;28;20047;-68
2023/12/31 07:20:32;;;;;;;10.00;6.63;;;-0.60;99.90;;;;;;5062564;28;20139;-68
2023/12/31 07:23:04;;;;;;;10.05;7.10;;;-0.70;99.90;;;;;;5059433;28;20047;-68
2023/12/31 07:25:36;;;;;;;10.35;6.38;;;-0.70;99.90;;;;;;5055724;28;20049;-67
2023/12/31 07:28:07;;;;;;;9.95;6.43;;;-0.70;99.90;;;;;;5073614;28;20140;-67
2023/12/31 07:30:39;;;;;;;8.88;6.60;;;-0.60;99.90;;;;;;5080074;28;20404;-68
2023/12/31 07:33:11;;;;;;;7.93;5.47;;;-0.60;99.90;;;;;;5082282;28;20049;-67
2023/12/31 07:35:38;;;;;;;8.73;5.55;;;-0.60;99.90;;;;;;5077002;28;20044;-67
2023/12/31 07:38:11;;;;;;;8.27;6.00;;;-0.60;99.90;;;;;;5078458;28;20052;-67
2023/12/31 07:40:43;;;;;;;8.48;5.03;;;-0.60;99.90;;;;;;5073558;28;20436;-68
2023/12/31 07:43:14;;;;;;;8.20;5.57;;;-0.50;99.90;;;;;;5086030;28;20054;-67
2023/12/31 07:45:47;;;;;;;16.50;9.77;;;-0.50;99.90;;;;;;5087887;28;20032;-67
2023/12/31 07:48:19;;;;;;;15.93;9.93;;;-0.50;99.90;;;;;;5072930;28;20040;-67
2023/12/31 07:50:51;;;;;;;10.15;6.82;;;-0.50;99.90;;;;;;5084885;28;20068;-67
2023/12/31 07:53:23;;;;;;;8.93;6.05;;;-0.40;99.90;;;;;;5074724;28;20054;-67
2023/12/31 07:55:49;;;;;;;11.70;6.53;;;-0.40;99.90;;;;;;5075882;28;20123;-67
2023/12/31 07:58:16;;;;;;;8.25;4.65;;;-0.30;99.90;;;;;;5075756;28;20049;-67
2023/12/31 08:00:48;;;;;;;8.90;5.35;;;-0.30;99.90;;;;;;5080085;28;20046;-67
2023/12/31 08:03:21;;;;;;;9.57;6.00;;;-0.30;99.90;;;;;;5066146;28;20063;-67
2023/12/31 08:05:47;;;;;;;6.38;5.13;;;-0.20;99.90;;;;;;5079487;28;20028;-67
2023/12/31 08:08:14;;;;;;;8.50;5.50;;;-0.20;99.90;;;;;;5077099;28;20484;-67
2023/12/31 08:10:46;;;;;;;8.65;5.63;;;-0.10;99.90;;;;;;5083038;28;20032;-67
2023/12/31 08:13:18;;;;;;;9.25;6.47;;;0.00;99.90;;;;;;5072927;28;20051;-67
2023/12/31 08:15:50;;;;;;;8.38;5.60;;;0.00;99.90;;;;;;5071616;28;20532;-68
2023/12/31 08:18:17;;;;;;;8.07;5.75;;;0.10;99.90;;;;;;5055294;28;20059;-68
2023/12/31 08:20:49;;;;;;;12.10;7.00;;;0.10;99.90;;;;;;5073898;28;20052;-68
2023/12/31 08:23:21;;;;;;;12.13;8.10;;;0.10;99.90;;;;;;5075836;28;20044;-68
2023/12/31 08:25:53;;;;;;;13.65;9.30;;;0.20;99.90;;;;;;5077740;28;20048;-67
2023/12/31 08:28:25;;;;;;;14.15;9.23;;;0.20;99.90;;;;;;5076673;28;20045;-67
2023/12/31 08:30:57;;;;;;;10.95;7.38;;;0.30;99.90;;;;;;5081680;28;20416;-68
2023/12/31 08:33:29;;;;;;;9.93;7.28;;;0.30;99.90;;;;;;5070684;28;20156;-67
2023/12/31 08:36:01;;;;;;;10.07;6.60;;;0.30;99.90;;;;;;5069804;28;20041;-67
2023/12/31 08:38:33;;;;;;;10.23;7.35;;;0.40;99.90;;;;;;5071553;28;20051;-67
2023/12/31 08:41:05;;;;;;;11.27;7.63;;;0.40;99.90;;;;;;5078992;28;20466;-67
2023/12/31 08:43:33;;;;;;;14.88;7.95;;;0.50;99.90;;;;;;5085379;28;20040;-67
2023/12/31 08:46:05;;;;;;;11.50;7.40;;;0.50;99.90;;;;;;5061593;28;20048;-67
2023/12/31 08:48:36;;;;;;;11.30;7.65;;;0.60;99.90;;;;;;5078400;28;20044;-66
2023/12/31 08:51:08;;;;;;;9.10;6.15;;;0.60;99.90;;;;;;5075160;28;20037;-67
2023/12/31 08:53:42;;;;;;;9.88;6.38;;;0.70;99.90;;;;;;5083997;28;20423;-67
2023/12/31 08:56:14;;;;;;;22.50;12.88;;;0.70;99.90;;;;;;5086856;28;20043;-67
2023/12/31 08:58:46;;;;;;;19.88;10.48;;;1.00;99.90;;;;;;5087208;28;20403;-67
2023/12/31 09:01:18;;;;;;;18.27;11.07;;;1.10;99.90;;;;;;5072043;28;20420;-67
2023/12/31 09:03:50;;;;;;;13.77;7.80;;;1.20;99.90;;;;;;5073273;28;20051;-67
2023/12/31 09:06:22;;;;;;;9.25;6.88;;;1.20;99.90;;;;;;5093402;28;20036;-70
2023/12/31 09:08:53;;;;;;;10.98;7.10;;;1.20;99.90;;;;;;5092642;28;20040;-67
2023/12/31 09:11:21;;;;;;;10.88;6.75;;;1.10;99.90;;;;;;5072479;28;20098;-68
2023/12/31 09:13:53;;;;;;;8.13;5.55;;;1.00;99.90;;;;;;5077667;28;20124;-67
2023/12/31 09:16:25;;;;;;;9.38;5.18;;;0.90;99.90;;;;;;5085172;28;20036;-69
2023/12/31 09:18:57;;;;;;;7.30;4.72;;;0.90;99.90;;;;;;5080890;28;20054;-68
2023/12/31 09:21:29;;;;;;;6.82;4.78;;;0.90;99.90;;;;;;5080427;28;20530;-67
2023/12/31 09:24:01;;;;;;;6.55;3.85;;;1.00;99.90;;;;;;5079159;28;20054;-67
2023/12/31 09:26:29;;;;;;;3.30;2.53;;;1.10;99.90;;;;;;5078208;28;20059;-68
2023/12/31 09:29:01;;;;;;;4.53;3.00;;;1.30;99.90;;;;;;5074770;28;20048;-68
2023/12/31 09:31:34;;;;;;;4.88;3.55;;;1.50;99.90;;;;;;5106776;28;20079;-67
2023/12/31 09:34:05;;;;;;;8.65;4.00;;;1.60;99.90;;;;;;5092140;28;20040;-68
2023/12/31 09:36:32;;;;;;;8.30;4.53;;;1.70;99.90;;;;;;5090250;28;20142;-68
2023/12/31 09:39:04;;;;;;;8.32;5.82;;;1.90;99.90;;;;;;5072859;28;20037;-68
2023/12/31 09:41:37;;;;;;;7.30;5.50;;;1.90;99.90;;;;;;5077583;28;20102;-68
2023/12/31 09:44:11;;;;;;;6.77;4.87;;;2.00;99.90;;;;;;5081909;28;20036;-68
2023/12/31 09:46:47;;;;;;;;;;;2.00;99.90;;;;;;5064657;28;20127;-68
2023/12/31 09:49:20;;;;;;;8.20;5.10;;;2.10;99.90;;;;;;5078673;28;19925;-67
2023/12/31 09:51:47;;;;;;;9.32;7.60;;;2.10;99.90;;;;;;5078670;28;20035;-68
2023/12/31 09:54:21;;;;;;;10.43;7.30;;;2.20;99.90;;;;;;5083176;28;20044;-68
2023/12/31 09:56:56;;;;;;;9.48;5.88;;;2.20;99.90;;;;;;5068354;28;20535;-68
2023/12/31 09:59:29;;;;;;;10.52;6.40;;;2.20;99.90;;;;;;5061643;28;20060;-68
2023/12/31 10:02:05;;;;;;;9.02;6.35;;;2.20;99.90;;;;;;5075468;28;20044;-68
2023/12/31 10:04:33;;;;;;;6.95;5.35;;;2.20;99.90;;;;;;5076970;28;20499;-68
2023/12/31 10:07:02;;;;;;;6.20;4.57;;;2.20;99.90;;;;;;5076274;28;20047;-68
2023/12/31 10:09:30;;;;;;;6.00;4.60;;;2.30;99.90;;;;;;5080678;28;20037;-68
2023/12/31 10:12:02;;;;;;;;;;;2.30;99.90;;;;;;5079871;28;20044;-68
2023/12/31 10:14:32;;;;;;;7.72;6.55;;;2.40;99.90;;;;;;5084041;28;19920;-68
2023/12/31 10:17:08;;;;;;;12.43;7.10;;;2.50;99.90;;;;;;5077940;28;20059;-68
2023/12/31 10:19:35;;;;;;;17.73;10.80;;;2.60;99.90;;;;;;5085324;28;20071;-68
2023/12/31 10:22:05;;;;;;;26.10;15.38;;;2.70;99.90;;;;;;5086774;28;20064;-68
2023/12/31 10:24:37;;;;;;;20.52;12.65;;;2.70;99.90;;;;;;5078922;28;20045;-68
2023/12/31 10:27:11;;;;;;;20.92;9.15;;;2.80;99.90;;;;;;5076069;28;20491;-68
2023/12/31 10:29:43;;;;;;;13.48;8.00;;;2.80;99.90;;;;;;5066416;28;20048;-68
2023/12/31 10:32:20;;;;;;;12.93;8.18;;;2.90;99.90;;;;;;5050970;28;20040;-68
2023/12/31 10:35:03;;;;;;;11.57;8.50;;;2.80;99.90;;;;;;5067795;28;20036;-68
2023/12/31 10:37:35;;;;;;;11.05;7.93;;;2.80;99.90;;;;;;5078074;28;20545;-68
2023/12/31 10:40:16;;;;;;;11.70;8.45;;;2.80;99.90;;;;;;5077276;28;20052;-68
2023/12/31 10:42:55;;;;;;;16.02;9.98;;;2.70;99.90;;;;;;5065071;28;20067;-67
2023/12/31 10:45:23;;;;;;;9.85;7.20;;;2.70;99.90;;;;;;5068523;28;20043;-67
2023/12/31 10:47:52;;;;;;;11.60;7.32;;;2.80;99.90;;;;;;5076581;28;20172;-67
2023/12/31 10:50:25;;;;;;;9.43;6.65;;;2.80;99.90;;;;;;5071856;28;20047;-67
2023/12/31 10:52:59;;;;;;;12.05;7.57;;;2.80;99.90;;;;;;5066114;28;20041;-67
2023/12/31 10:55:34;;;;;;;14.80;9.13;;;2.80;99.90;;;;;;5079197;28;20032;-68
2023/12/31 10:58:06;;;;;;;13.70;8.40;;;2.90;99.90;;;;;;5074125;28;20064;-68
2023/12/31 11:00:39;;;;;;;11.25;8.45;;;3.00;99.90;;;;;;5083899;28;20125;-68
2023/12/31 11:03:10;;;;;;;10.43;7.22;;;3.00;99.90;;;;;;5067700;28;20411;-68
2023/12/31 11:05:44;;;;;;;9.77;6.95;;;3.10;99.90;;;;;;5076140;28;20536;-68
2023/12/31 11:08:12;;;;;;;11.82;7.07;;;3.20;99.90;;;;;;5057495;28;20067;-67
2023/12/31 11:10:38;;;;;;;12.13;6.82;;;3.20;99.90;;;;;;5078413;28;20064;-67
2023/12/31 11:13:12;;;;;;;11.75;7.25;;;3.30;99.90;;;;;;5075064;28;20029;-68
2023/12/31 11:15:46;;;;;;;9.00;6.40;;;3.30;99.90;;;;;;5081799;28;20036;-68
2023/12/31 11:18:41;;;;;;;7.28;5.97;;;3.40;99.90;;;;;;5086292;28;20068;-68
2023/12/31 11:22:01;;;;;;;7.10;4.85;;;3.40;99.90;;;;;;5058797;28;20068;-69
2023/12/31 11:24:33;;;;;;;8.25;5.28;;;3.40;99.90;;;;;;5011936;28;20041;-68
2023/12/31 11:27:07;;;;;;;10.70;7.15;;;3.50;99.90;;;;;;5073836;28;20062;-68
2023/12/31 11:29:34;;;;;;;12.55;7.05;;;3.50;99.90;;;;;;5079678;28;20068;-68
2023/12/31 11:32:04;;;;;;;12.80;7.70;;;3.60;99.90;;;;;;5075598;28;20119;-67
2023/12/31 11:34:39;;;;;;;8.23;6.72;;;3.60;99.90;;;;;;5069930;28;20048;-66
2023/12/31 11:37:07;;;;;;;11.75;6.90;;;3.80;99.90;;;;;;5068990;28;20054;-67
2023/12/31 11:39:45;;;;;;;7.78;5.93;;;4.10;99.90;;;;;;5067030;28;20040;-66
2023/12/31 11:42:19;;;;;;;7.88;5.78;;;4.30;99.90;;;;;;5067238;28;20585;-67
2023/12/31 11:44:46;;;;;;;11.20;8.27;;;4.50;99.90;;;;;;5069331;28;20123;-66
2023/12/31 11:47:22;;;;;;;9.73;7.20;;;4.50;99.90;;;;;;5067635;28;20040;-66
2023/12/31 11:50:17;;;;;;;10.07;6.82;;;4.50;99.90;;;;;;5065124;28;20402;-66
2023/12/31 11:52:49;;;;;;;11.95;7.75;;;4.60;99.90;;;;;;5073300;28;20051;-67
2023/12/31 11:55:23;;;;;;;12.45;7.68;;;4.70;99.90;;;;;;5080174;28;20041;-67
2023/12/31 11:57:55;;;;;;;15.50;9.07;;;4.80;99.90;;;;;;5050266;28;20079;-67
2023/12/31 12:00:27;;;;;;;22.55;12.43;;;4.90;99.90;;;;;;5058453;28;20052;-67
2023/12/31 12:03:01;;;;;;;22.98;14.13;;;4.80;99.90;;;;;;5044163;28;20049;-67
2023/12/31 12:05:33;;;;;;;16.17;11.00;;;4.90;99.90;;;;;;5052458;28;20424;-67
2023/12/31 12:08:08;;;;;;;13.50;10.15;;;4.90;99.90;;;;;;5050941;28;20033;-66
2023/12/31 12:10:35;;;;;;;16.23;9.57;;;5.00;99.90;;;;;;5055127;28;20122;-66
2023/12/31 12:13:03;;;;;;;13.27;10.63;;;5.10;99.90;;;;;;5049125;28;20217;-66
2023/12/31 12:15:39;;;;;;;20.40;13.18;;;5.10;99.90;;;;;;5059014;28;20044;-66
2023/12/31 12:18:15;;;;;;;14.93;11.07;;;5.20;99.90;;;;;;5059320;28;20064;-66
2023/12/31 12:20:48;;;;;;;11.63;8.27;;;5.20;99.90;;;;;;5063837;28;20041;-67
2023/12/31 12:23:19;;;;;;;12.38;10.52;;;5.20;99.90;;;;;;5051314;28;20128;-67
2023/12/31 12:25:51;;;;;;;12.23;9.23;;;5.30;99.90;;;;;;5060137;28;20128;-66
2023/12/31 12:28:25;;;;;;;13.68;10.13;;;5.40;99.90;;;;;;5056471;28;20400;-66
2023/12/31 12:30:57;;;;;;;15.98;11.90;;;5.40;99.90;;;;;;5055474;28;20412;-68
2023/12/31 12:33:29;;;;;;;12.73;9.48;;;5.50;99.90;;;;;;5058452;28;20489;-66
2023/12/31 12:36:03;;;;;;;13.23;10.10;;;5.50;99.90;;;;;;5053616;28;20041;-66
2023/12/31 12:38:37;;;;;;;13.00;10.18;;;5.50;99.90;;;;;;5053822;28;20401;-67
2023/12/31 12:41:08;;;;;;;14.57;9.77;;;5.60;99.90;;;;;;5072261;28;20057;-67
2023/12/31 12:43:36;;;;;;;12.00;9.43;;;5.60;99.90;;;;;;5059936;28;20121;-67
2023/12/31 12:46:10;;;;;;;10.95;8.82;;;5.70;99.90;;;;;;5057916;28;20508;-66
2023/12/31 12:48:49;;;;;;;13.63;9.98;;;5.70;99.90;;;;;;5053373;28;20041;-66
2023/12/31 12:51:25;;;;;;;10.00;6.32;;;5.80;99.90;;;;;;5058089;28;20033;-66
2023/12/31 12:53:59;;;;;;;11.60;8.75;;;6.00;99.90;;;;;;5059766;28;20059;-66
2023/12/31 12:56:31;;;;;;;19.52;10.25;;;6.10;99.90;;;;;;5063466;28;20045;-67
2023/12/31 12:59:04;;;;;;;19.40;11.40;;;6.30;99.90;;;;;;5034915;28;20053;-66
2023/12/31 13:01:36;;;;;;;15.52;9.10;;;6.40;99.90;;;;;;5053518;28;20048;-67
2023/12/31 13:04:12;;;;;;;6.35;4.22;;;6.40;99.90;;;;;;5066927;28;20069;-67
2023/12/31 13:06:44;;;;;;;9.93;6.45;;;6.50;99.90;;;;;;5061168;28;20029;-67
2023/12/31 13:09:11;;;;;;;8.70;6.43;;;6.60;99.90;;;;;;5062290;28;20134;-67
2023/12/31 13:11:43;;;;;;;8.57;5.78;;;6.60;99.90;;;;;;5058721;28;20033;-67